Time;durP1;ratioP1;P1;durP2;ratioP2;P2;SDS_P1;SDS_P2;PMS_P1;PMS_P2;Temp;Humidity;BMP_temperature;BMP_pressure;BME280_temperature;BME280_humidity;BME280_pressure;Samples;Min_cycle;Max_cycle;Signal;HPM_P1;HPM_P2
2023/10/31 00:01:05;;;;;;;1999.90;999.90;;;;;;;;;;5060184;28;20040;-87
2023/10/31 00:03:33;;;;;;;1999.90;999.90;;;;;;;;;;5061199;28;20473;-87
2023/10/31 00:06:00;;;;;;;1999.90;999.90;;;;;;;;;;5058319;28;20052;-85
2023/10/31 00:08:26;;;;;;;1999.90;999.90;;;;;;;;;;5060061;28;20049;-86
2023/10/31 00:10:53;;;;;;;1999.90;999.90;;;;;;;;;;5057780;28;20486;-86
2023/10/31 00:13:19;;;;;;;1999.90;999.90;;;;;;;;;;5061265;28;20053;-86
2023/10/31 00:15:46;;;;;;;1999.90;999.90;;;;;;;;;;5055762;28;20049;-85
2023/10/31 00:18:12;;;;;;;1999.90;999.90;;;;;;;;;;5063124;28;20067;-87
2023/10/31 00:20:40;;;;;;;1999.90;999.90;;;;;;;;;;5059164;28;20049;-87
2023/10/31 00:23:07;;;;;;;1999.90;999.90;;;;;;;;;;5059434;28;20059;-87
2023/10/31 00:25:33;;;;;;;1999.90;999.90;;;;;;;;;;5061655;28;20052;-86
2023/10/31 00:27:59;;;;;;;1999.90;999.90;;;;;;;;;;5062249;28;20504;-86
2023/10/31 00:30:26;;;;;;;1999.90;999.90;;;;;;;;;;5059103;28;20056;-87
2023/10/31 00:32:52;;;;;;;1999.90;999.90;;;;;;;;;;5059007;28;20055;-86
2023/10/31 00:35:19;;;;;;;1999.90;999.90;;;;;;;;;;5062416;28;20044;-87
2023/10/31 00:37:47;;;;;;;1999.90;999.90;;;;;;;;;;5060453;28;20049;-86
2023/10/31 00:40:16;;;;;;;1999.90;999.90;;;;;;;;;;5059478;28;20045;-87
2023/10/31 00:42:42;;;;;;;1999.90;999.90;;;;;;;;;;5058581;28;20053;-84
2023/10/31 00:45:10;;;;;;;1999.90;999.90;;;;;;;;;;5061805;28;20045;-86
2023/10/31 00:47:36;;;;;;;1999.90;999.90;;;;;;;;;;5060972;28;20449;-86
2023/10/31 00:50:03;;;;;;;1999.90;999.90;;;;;;;;;;5061624;28;20041;-86
2023/10/31 00:52:29;;;;;;;1999.90;999.90;;;;;;;;;;5058585;28;20045;-86
2023/10/31 00:54:57;;;;;;;1999.90;999.90;;;;;;;;;;5061157;28;20052;-85
2023/10/31 00:57:24;;;;;;;1999.90;999.90;;;;;;;;;;5058237;28;20052;-86
2023/10/31 00:59:50;;;;;;;1999.90;999.90;;;;;;;;;;5061220;28;20560;-85
2023/10/31 01:02:17;;;;;;;1999.90;999.90;;;;;;;;;;5064165;28;20427;-85
2023/10/31 01:04:43;;;;;;;1999.90;999.90;;;;;;;;;;5057838;28;20073;-86
2023/10/31 01:07:12;;;;;;;1999.90;999.90;;;;;;;;;;5062867;28;20045;-86
2023/10/31 01:09:38;;;;;;;1999.90;999.90;;;;;;;;;;5063008;28;20119;-86
2023/10/31 01:12:07;;;;;;;1999.90;999.90;;;;;;;;;;5064711;28;20056;-85
2023/10/31 01:14:34;;;;;;;1999.90;999.90;;;;;;;;;;5061910;28;20044;-84
2023/10/31 01:17:01;;;;;;;1999.90;999.90;;;;;;;;;;5063123;28;20136;-85
2023/10/31 01:19:28;;;;;;;1999.90;999.90;;;;;;;;;;5062562;28;20052;-85
2023/10/31 01:21:54;;;;;;;1999.90;999.90;;;;;;;;;;5060007;28;20163;-85
2023/10/31 01:24:20;;;;;;;1999.90;999.90;;;;;;;;;;5062599;28;20062;-86
2023/10/31 01:26:46;;;;;;;1999.90;999.90;;;;;;;;;;5061632;28;20408;-85
2023/10/31 01:29:14;;;;;;;1999.90;999.90;;;;;;;;;;5060967;28;20049;-85
2023/10/31 01:31:42;;;;;;;1999.90;999.90;;;;;;;;;;5060699;28;20036;-86
2023/10/31 01:34:09;;;;;;;1999.90;999.90;;;;;;;;;;5064053;28;20489;-85
2023/10/31 01:36:35;;;;;;;1999.90;999.90;;;;;;;;;;5063724;28;20182;-83
2023/10/31 01:39:02;;;;;;;1999.90;999.90;;;;;;;;;;5061632;28;20132;-86
2023/10/31 01:41:28;;;;;;;1999.90;999.90;;;;;;;;;;5061088;28;20052;-88
2023/10/31 01:43:55;;;;;;;1999.90;999.90;;;;;;;;;;5065624;28;20131;-85
2023/10/31 01:46:23;;;;;;;1999.90;999.90;;;;;;;;;;5059824;28;20060;-86
2023/10/31 01:48:49;;;;;;;1999.90;999.90;;;;;;;;;;5063362;28;20135;-85
2023/10/31 01:51:16;;;;;;;1999.90;999.90;;;;;;;;;;5057646;28;20037;-85
2023/10/31 01:53:42;;;;;;;1999.90;999.90;;;;;;;;;;5063944;28;20417;-85
2023/10/31 01:56:09;;;;;;;1999.90;999.90;;;;;;;;;;5058407;28;20051;-84
2023/10/31 01:58:36;;;;;;;1999.90;999.90;;;;;;;;;;5060938;28;20051;-86
2023/10/31 02:01:04;;;;;;;1999.90;999.90;;;;;;;;;;5058833;28;20040;-85
2023/10/31 02:03:33;;;;;;;1999.90;999.90;;;;;;;;;;5063586;28;20068;-85
2023/10/31 02:06:00;;;;;;;1999.90;999.90;;;;;;;;;;5062083;28;20465;-84
2023/10/31 02:08:26;;;;;;;1999.90;999.90;;;;;;;;;;5060478;28;20053;-84
2023/10/31 02:10:53;;;;;;;1999.90;999.90;;;;;;;;;;5062768;28;20049;-87
2023/10/31 02:13:19;;;;;;;1999.90;999.90;;;;;;;;;;5058760;28;20049;-85
2023/10/31 02:15:46;;;;;;;1999.90;999.90;;;;;;;;;;5060810;28;20047;-85
2023/10/31 02:18:13;;;;;;;1999.90;999.90;;;;;;;;;;5060385;28;20055;-84
2023/10/31 02:20:41;;;;;;;1999.90;999.90;;;;;;;;;;5063794;28;20048;-83
2023/10/31 02:23:09;;;;;;;1999.90;999.90;;;;;;;;;;5061411;28;20058;-85
2023/10/31 02:25:36;;;;;;;1999.90;999.90;;;;;;;;;;5062462;28;20442;-85
2023/10/31 02:28:02;;;;;;;1999.90;999.90;;;;;;;;;;5058873;28;20053;-85
2023/10/31 02:30:29;;;;;;;1999.90;999.90;;;;;;;;;;5054739;28;20048;-85
2023/10/31 02:32:55;;;;;;;1999.90;999.90;;;;;;;;;;5063780;28;20049;-85
2023/10/31 02:35:22;;;;;;;1999.90;999.90;;;;;;;;;;5061121;28;20051;-87
2023/10/31 02:37:49;;;;;;;1999.90;999.90;;;;;;;;;;5059052;28;20486;-85
2023/10/31 02:40:17;;;;;;;1999.90;999.90;;;;;;;;;;5059982;28;20429;-86
2023/10/31 02:42:43;;;;;;;1999.90;999.90;;;;;;;;;;5061517;28;20127;-85
2023/10/31 02:45:10;;;;;;;1999.90;999.90;;;;;;;;;;5057729;28;20053;-85
2023/10/31 02:47:37;;;;;;;1999.90;999.90;;;;;;;;;;5059133;28;20052;-85
2023/10/31 02:50:04;;;;;;;1999.90;999.90;;;;;;;;;;5060531;28;20134;-85
2023/10/31 02:52:31;;;;;;;1999.90;999.90;;;;;;;;;;5054902;28;20048;-84
2023/10/31 02:54:57;;;;;;;1999.90;999.90;;;;;;;;;;5063289;28;20455;-84
2023/10/31 02:57:25;;;;;;;1999.90;999.90;;;;;;;;;;5057941;28;20044;-85
2023/10/31 02:59:51;;;;;;;1999.90;999.90;;;;;;;;;;5065149;28;20048;-84
2023/10/31 03:02:18;;;;;;;1999.90;999.90;;;;;;;;;;5060553;28;20051;-84
2023/10/31 03:04:44;;;;;;;1999.90;999.90;;;;;;;;;;5059245;28;20509;-84
2023/10/31 03:07:11;;;;;;;1999.90;999.90;;;;;;;;;;5060077;28;20040;-84
2023/10/31 03:09:38;;;;;;;1999.90;999.90;;;;;;;;;;5057061;28;20056;-85
2023/10/31 03:12:05;;;;;;;1999.90;999.90;;;;;;;;;;5061102;28;20048;-84
2023/10/31 03:14:32;;;;;;;1999.90;999.90;;;;;;;;;;5055030;28;20099;-84
2023/10/31 03:16:59;;;;;;;1999.90;999.90;;;;;;;;;;5060259;28;20045;-84
2023/10/31 03:19:25;;;;;;;1999.90;999.90;;;;;;;;;;5058430;28;20051;-85
2023/10/31 03:21:52;;;;;;;1999.90;999.90;;;;;;;;;;5057796;28;20091;-85
2023/10/31 03:24:18;;;;;;;1999.90;999.90;;;;;;;;;;5060440;28;20045;-86
2023/10/31 03:26:45;;;;;;;1999.90;999.90;;;;;;;;;;5059163;28;20041;-84
2023/10/31 03:29:11;;;;;;;1999.90;999.90;;;;;;;;;;5060836;28;20044;-86
2023/10/31 03:31:39;;;;;;;1999.90;999.90;;;;;;;;;;5065502;28;20047;-86
2023/10/31 03:34:06;;;;;;;1999.90;999.90;;;;;;;;;;5066465;28;20048;-85
2023/10/31 03:36:32;;;;;;;1999.90;999.90;;;;;;;;;;5063616;28;20040;-85
2023/10/31 03:38:59;;;;;;;1999.90;999.90;;;;;;;;;;5066228;28;20044;-85
2023/10/31 03:41:25;;;;;;;1999.90;999.90;;;;;;;;;;5066053;28;20060;-85
2023/10/31 03:43:52;;;;;;;1999.90;999.90;;;;;;;;;;5063072;28;20052;-84
2023/10/31 03:46:18;;;;;;;1999.90;999.90;;;;;;;;;;5057216;28;20053;-85
2023/10/31 03:48:46;;;;;;;1999.90;999.90;;;;;;;;;;5053879;28;20052;-85
2023/10/31 03:51:12;;;;;;;1999.90;999.90;;;;;;;;;;5058720;28;20063;-84
2023/10/31 03:53:39;;;;;;;1999.90;999.90;;;;;;;;;;5061813;28;20052;-87
2023/10/31 03:56:06;;;;;;;1999.90;999.90;;;;;;;;;;5053584;28;20049;-86
2023/10/31 03:58:32;;;;;;;1999.90;999.90;;;;;;;;;;5055763;28;20075;-86
2023/10/31 04:00:59;;;;;;;1999.90;999.90;;;;;;;;;;5054948;28;20049;-84
2023/10/31 04:03:25;;;;;;;1999.90;999.90;;;;;;;;;;5053823;28;20052;-84
2023/10/31 04:05:54;;;;;;;1999.90;999.90;;;;;;;;;;5057678;28;20412;-86
2023/10/31 04:08:20;;;;;;;1999.90;999.90;;;;;;;;;;5057092;28;20527;-84
2023/10/31 04:10:47;;;;;;;1999.90;999.90;;;;;;;;;;5056157;28;20374;-84
2023/10/31 04:13:13;;;;;;;1999.90;999.90;;;;;;;;;;5053820;28;20048;-84
2023/10/31 04:15:40;;;;;;;1999.90;999.90;;;;;;;;;;5056406;28;20045;-84
2023/10/31 04:18:06;;;;;;;1999.90;999.90;;;;;;;;;;5061327;28;20481;-85
2023/10/31 04:20:33;;;;;;;1999.90;999.90;;;;;;;;;;5061379;28;20056;-83
2023/10/31 04:23:01;;;;;;;1999.90;999.90;;;;;;;;;;5058032;28;20060;-84
2023/10/31 04:25:29;;;;;;;1999.90;999.90;;;;;;;;;;5057819;28;20604;-85
2023/10/31 04:27:55;;;;;;;1999.90;999.90;;;;;;;;;;5055847;28;20048;-84
2023/10/31 04:30:22;;;;;;;1999.90;999.90;;;;;;;;;;5059627;28;20044;-84
2023/10/31 04:32:48;;;;;;;1999.90;999.90;;;;;;;;;;5058183;28;20114;-84
2023/10/31 04:35:15;;;;;;;1999.90;999.90;;;;;;;;;;5061268;28;20053;-84
2023/10/31 04:37:42;;;;;;;1999.90;999.90;;;;;;;;;;5056269;28;20056;-85
2023/10/31 04:40:11;;;;;;;1999.90;999.90;;;;;;;;;;5055164;28;20057;-89
2023/10/31 04:42:39;;;;;;;1999.90;999.90;;;;;;;;;;5058373;28;20057;-85
2023/10/31 04:45:07;;;;;;;1999.90;999.90;;;;;;;;;;5056553;28;20048;-86
2023/10/31 04:47:33;;;;;;;1999.90;999.90;;;;;;;;;;5052713;28;20144;-86
2023/10/31 04:50:00;;;;;;;1999.90;999.90;;;;;;;;;;5060085;28;20049;-85
2023/10/31 04:52:26;;;;;;;1999.90;999.90;;;;;;;;;;5055937;28;20509;-87
2023/10/31 04:54:53;;;;;;;1999.90;999.90;;;;;;;;;;5057938;28;20489;-85
2023/10/31 04:57:22;;;;;;;1999.90;999.90;;;;;;;;;;5060305;28;20098;-86
2023/10/31 04:59:48;;;;;;;1999.90;999.90;;;;;;;;;;5058380;28;20478;-86
2023/10/31 05:02:15;;;;;;;1999.90;999.90;;;;;;;;;;5061585;28;20052;-87
2023/10/31 05:04:42;;;;;;;1999.90;999.90;;;;;;;;;;5062000;28;20048;-86
2023/10/31 05:07:08;;;;;;;1999.90;999.90;;;;;;;;;;5064373;28;20051;-86
2023/10/31 05:09:35;;;;;;;1999.90;999.90;;;;;;;;;;5066880;28;20045;-86
2023/10/31 05:12:02;;;;;;;1999.90;999.90;;;;;;;;;;5063706;28;20545;-85
2023/10/31 05:14:30;;;;;;;1999.90;999.90;;;;;;;;;;5061560;28;20074;-85
2023/10/31 05:16:56;;;;;;;1999.90;999.90;;;;;;;;;;5061578;28;20063;-85
2023/10/31 05:19:23;;;;;;;1999.90;999.90;;;;;;;;;;5058886;28;20421;-85
2023/10/31 05:21:49;;;;;;;1999.90;999.90;;;;;;;;;;5063018;28;20049;-85
2023/10/31 05:24:16;;;;;;;1999.90;999.90;;;;;;;;;;5061894;28;20051;-86
2023/10/31 05:26:42;;;;;;;1999.90;999.90;;;;;;;;;;5062015;28;20045;-85
2023/10/31 05:29:09;;;;;;;1999.90;999.90;;;;;;;;;;5060493;28;20052;-85
2023/10/31 05:31:37;;;;;;;1999.90;999.90;;;;;;;;;;5060130;28;20412;-85
2023/10/31 05:34:04;;;;;;;1999.90;999.90;;;;;;;;;;5057718;28;20049;-85
2023/10/31 05:36:31;;;;;;;1999.90;999.90;;;;;;;;;;5062183;28;20056;-86
2023/10/31 05:38:58;;;;;;;1999.90;999.90;;;;;;;;;;5061422;28;20053;-85
2023/10/31 05:41:24;;;;;;;1999.90;999.90;;;;;;;;;;5058966;28;20056;-86
2023/10/31 05:43:51;;;;;;;1999.90;999.90;;;;;;;;;;5059837;28;20045;-85
2023/10/31 05:46:17;;;;;;;1999.90;999.90;;;;;;;;;;5059472;28;20497;-83
2023/10/31 05:48:46;;;;;;;1999.90;999.90;;;;;;;;;;5063097;28;20052;-85
2023/10/31 05:51:14;;;;;;;1999.90;999.90;;;;;;;;;;5060675;28;20485;-89
2023/10/31 05:53:41;;;;;;;1999.90;999.90;;;;;;;;;;5060827;28;20055;-86
2023/10/31 05:56:09;;;;;;;1999.90;999.90;;;;;;;;;;5063048;28;20059;-84
2023/10/31 05:58:36;;;;;;;1999.90;999.90;;;;;;;;;;5057469;28;20049;-86
2023/10/31 06:01:03;;;;;;;1999.90;999.90;;;;;;;;;;5059440;28;20064;-86
2023/10/31 06:03:29;;;;;;;1999.90;999.90;;;;;;;;;;5058738;28;20045;-86
2023/10/31 06:05:57;;;;;;;1999.90;999.90;;;;;;;;;;5057913;28;20053;-85
2023/10/31 06:08:27;;;;;;;1999.90;999.90;;;;;;;;;;5062155;28;20044;-87
2023/10/31 06:10:53;;;;;;;1999.90;999.90;;;;;;;;;;5062137;28;20512;-86
2023/10/31 06:13:20;;;;;;;1999.90;999.90;;;;;;;;;;5058798;28;20049;-87
2023/10/31 06:15:46;;;;;;;1999.90;999.90;;;;;;;;;;5062441;28;20045;-86
2023/10/31 06:18:13;;;;;;;1999.90;999.90;;;;;;;;;;5061505;28;20041;-85
2023/10/31 06:20:39;;;;;;;1999.90;999.90;;;;;;;;;;5060824;28;20056;-86
2023/10/31 06:23:07;;;;;;;1999.90;999.90;;;;;;;;;;5063130;28;20055;-86
2023/10/31 06:25:34;;;;;;;1999.90;999.90;;;;;;;;;;5055133;28;20047;-85
2023/10/31 06:28:00;;;;;;;1999.90;999.90;;;;;;;;;;5056445;28;20056;-87
2023/10/31 06:30:27;;;;;;;1999.90;999.90;;;;;;;;;;5062335;28;20040;-85
2023/10/31 06:32:54;;;;;;;1999.90;999.90;;;;;;;;;;5064666;28;20059;-86
2023/10/31 06:35:20;;;;;;;1999.90;999.90;;;;;;;;;;5060852;28;20497;-87
2023/10/31 06:37:47;;;;;;;1999.90;999.90;;;;;;;;;;5058874;28;20048;-83
2023/10/31 06:40:15;;;;;;;1999.90;999.90;;;;;;;;;;5058768;28;20052;-83
2023/10/31 06:42:41;;;;;;;1999.90;999.90;;;;;;;;;;5053551;28;20045;-83
2023/10/31 06:45:09;;;;;;;1999.90;999.90;;;;;;;;;;5062996;28;20409;-83
2023/10/31 06:47:35;;;;;;;1999.90;999.90;;;;;;;;;;5060370;28;20139;-83
2023/10/31 06:50:02;;;;;;;1999.90;999.90;;;;;;;;;;5056406;28;20049;-83
2023/10/31 06:52:29;;;;;;;1999.90;999.90;;;;;;;;;;5060846;28;20140;-83
2023/10/31 06:54:55;;;;;;;1999.90;999.90;;;;;;;;;;5060526;28;20052;-83
2023/10/31 06:57:23;;;;;;;1999.90;999.90;;;;;;;;;;5059500;28;20041;-83
2023/10/31 06:59:50;;;;;;;1999.90;999.90;;;;;;;;;;5061772;28;20508;-83
2023/10/31 07:02:16;;;;;;;1999.90;999.90;;;;;;;;;;5061717;28;20049;-83
2023/10/31 07:04:43;;;;;;;1999.90;999.90;;;;;;;;;;5056463;28;20049;-83
2023/10/31 07:07:09;;;;;;;1999.90;999.90;;;;;;;;;;5059592;28;20076;-83
2023/10/31 07:09:36;;;;;;;1999.90;999.90;;;;;;;;;;5059344;28;20076;-83
2023/10/31 07:12:02;;;;;;;1999.90;999.90;;;;;;;;;;5055792;28;20315;-81
2023/10/31 07:14:30;;;;;;;1999.90;999.90;;;;;;;;;;5058468;28;20048;-82
2023/10/31 07:16:57;;;;;;;1999.90;999.90;;;;;;;;;;5059105;28;20056;-82
2023/10/31 07:19:23;;;;;;;1999.90;999.90;;;;;;;;;;5059069;28;20049;-80
2023/10/31 07:21:50;;;;;;;1999.90;999.90;;;;;;;;;;5061361;28;20493;-81
2023/10/31 07:24:16;;;;;;;1999.90;999.90;;;;;;;;;;5059485;28;20067;-82
2023/10/31 07:26:43;;;;;;;1999.90;999.90;;;;;;;;;;5054449;28;20049;-80
2023/10/31 07:29:09;;;;;;;1999.90;999.90;;;;;;;;;;5058944;28;20053;-81
2023/10/31 07:31:38;;;;;;;1999.90;999.90;;;;;;;;;;5054348;28;20072;-81
2023/10/31 07:34:05;;;;;;;1999.90;999.90;;;;;;;;;;5057034;28;20055;-83
2023/10/31 07:36:34;;;;;;;1999.90;999.90;;;;;;;;;;5058938;28;20515;-82
2023/10/31 07:39:01;;;;;;;1999.90;999.90;;;;;;;;;;5057846;28;20464;-82
2023/10/31 07:41:27;;;;;;;1999.90;999.90;;;;;;;;;;5059973;28;20048;-84
2023/10/31 07:43:54;;;;;;;1999.90;999.90;;;;;;;;;;5054736;28;20048;-82
2023/10/31 07:46:20;;;;;;;1999.90;999.90;;;;;;;;;;5060620;28;20056;-83
2023/10/31 07:48:48;;;;;;;1999.90;999.90;;;;;;;;;;5061108;28;20409;-84
2023/10/31 07:51:14;;;;;;;1999.90;999.90;;;;;;;;;;5055324;28;20359;-83
2023/10/31 07:53:42;;;;;;;1999.90;999.90;;;;;;;;;;5059046;28;20045;-82
2023/10/31 07:56:15;;;;;;;1999.90;999.90;;;;;;;;;;5060778;28;20049;-83
2023/10/31 07:58:42;;;;;;;1999.90;999.90;;;;;;;;;;5059612;28;20044;-83
2023/10/31 08:01:10;;;;;;;1999.90;999.90;;;;;;;;;;5058922;28;20053;-83
2023/10/31 08:03:37;;;;;;;1999.90;999.90;;;;;;;;;;5059424;28;20048;-82
2023/10/31 08:06:07;;;;;;;1999.90;999.90;;;;;;;;;;5061209;28;20050;-82
2023/10/31 08:08:33;;;;;;;1999.90;999.90;;;;;;;;;;5059009;28;20056;-83
2023/10/31 08:11:00;;;;;;;1999.90;999.90;;;;;;;;;;5057371;28;20400;-82
2023/10/31 08:13:26;;;;;;;1999.90;999.90;;;;;;;;;;5059935;28;20045;-83
2023/10/31 08:15:53;;;;;;;1999.90;999.90;;;;;;;;;;5058010;28;20485;-83
2023/10/31 08:18:20;;;;;;;1999.90;999.90;;;;;;;;;;5057691;28;20052;-83
2023/10/31 08:20:49;;;;;;;1999.90;999.90;;;;;;;;;;5060526;28;20068;-83
2023/10/31 08:23:17;;;;;;;1999.90;999.90;;;;;;;;;;5060447;28;20037;-83
2023/10/31 08:25:43;;;;;;;1999.90;999.90;;;;;;;;;;5058507;28;20061;-82
2023/10/31 08:28:10;;;;;;;1999.90;999.90;;;;;;;;;;5057681;28;20119;-84
2023/10/31 08:30:36;;;;;;;1999.90;999.90;;;;;;;;;;5061272;28;20047;-82
2023/10/31 08:33:02;;;;;;;1999.90;999.90;;;;;;;;;;5059888;28;20432;-82
2023/10/31 08:35:29;;;;;;;1999.90;999.90;;;;;;;;;;5060267;28;20060;-82
2023/10/31 08:37:56;;;;;;;1999.90;999.90;;;;;;;;;;5059770;28;20040;-82
2023/10/31 08:40:24;;;;;;;1999.90;999.90;;;;;;;;;;5059358;28;20065;-82
2023/10/31 08:42:50;;;;;;;1999.90;999.90;;;;;;;;;;5063487;28;20055;-83
2023/10/31 08:45:17;;;;;;;1999.90;999.90;;;;;;;;;;5066991;28;20053;-82
2023/10/31 08:47:43;;;;;;;1999.90;999.90;;;;;;;;;;5062602;28;20055;-84
2023/10/31 08:50:11;;;;;;;1999.90;999.90;;;;;;;;;;5061608;28;20052;-84
2023/10/31 08:52:37;;;;;;;1999.90;999.90;;;;;;;;;;5061537;28;20056;-82
2023/10/31 08:55:04;;;;;;;1999.90;999.90;;;;;;;;;;5063607;28;20049;-82
2023/10/31 08:57:33;;;;;;;1999.90;999.90;;;;;;;;;;5061157;28;20049;-83
2023/10/31 09:00:00;;;;;;;1999.90;999.90;;;;;;;;;;5062561;28;20051;-82
2023/10/31 09:02:26;;;;;;;1999.90;999.90;;;;;;;;;;5065471;28;20053;-83
2023/10/31 09:04:53;;;;;;;1999.90;999.90;;;;;;;;;;5059260;28;20052;-83
2023/10/31 09:07:20;;;;;;;1999.90;999.90;;;;;;;;;;5065095;28;20049;-83
2023/10/31 09:09:46;;;;;;;1999.90;999.90;;;;;;;;;;5062761;28;20048;-83
2023/10/31 09:12:13;;;;;;;1999.90;999.90;;;;;;;;;;5061486;28;20044;-83
2023/10/31 09:14:42;;;;;;;1999.90;999.90;;;;;;;;;;5066399;28;20049;-83
2023/10/31 09:17:08;;;;;;;1999.90;999.90;;;;;;;;;;5064754;28;20058;-83
2023/10/31 09:19:35;;;;;;;1999.90;999.90;;;;;;;;;;5064399;28;20045;-83
2023/10/31 09:22:01;;;;;;;1999.90;999.90;;;;;;;;;;5066453;28;20057;-83
2023/10/31 09:24:28;;;;;;;1999.90;999.90;;;;;;;;;;5063761;28;20045;-83
2023/10/31 09:26:54;;;;;;;1999.90;999.90;;;;;;;;;;5069171;28;20057;-84
2023/10/31 09:29:21;;;;;;;1999.90;999.90;;;;;;;;;;5067064;28;20131;-83
2023/10/31 09:31:49;;;;;;;1999.90;999.90;;;;;;;;;;5069219;28;20056;-83
2023/10/31 09:34:15;;;;;;;1999.90;999.90;;;;;;;;;;5067654;28;20061;-83
2023/10/31 09:36:43;;;;;;;1999.90;999.90;;;;;;;;;;5065731;28;20106;-82
2023/10/31 09:39:09;;;;;;;1999.90;999.90;;;;;;;;;;5068413;28;20386;-82
2023/10/31 09:41:36;;;;;;;1999.90;999.90;;;;;;;;;;5064857;28;20045;-84
2023/10/31 09:44:02;;;;;;;1999.90;999.90;;;;;;;;;;5064484;28;20048;-83
2023/10/31 09:46:29;;;;;;;1999.90;999.90;;;;;;;;;;5068232;28;20048;-83
2023/10/31 09:48:57;;;;;;;1999.90;999.90;;;;;;;;;;5061150;28;20048;-85
2023/10/31 09:51:24;;;;;;;1999.90;999.90;;;;;;;;;;5061465;28;20075;-82
2023/10/31 09:53:55;;;;;;;1999.90;999.90;;;;;;;;;;5058855;28;20056;-83
2023/10/31 09:56:22;;;;;;;1999.90;999.90;;;;;;;;;;5058270;28;20045;-82
2023/10/31 09:58:49;;;;;;;1999.90;999.90;;;;;;;;;;5061970;28;20044;-83
2023/10/31 10:01:16;;;;;;;1999.90;999.90;;;;;;;;;;5060725;28;20493;-83
2023/10/31 10:03:43;;;;;;;1999.90;999.90;;;;;;;;;;5062443;28;20053;-84
2023/10/31 10:06:11;;;;;;;1999.90;999.90;;;;;;;;;;5061366;28;20406;-84
2023/10/31 10:08:38;;;;;;;1999.90;999.90;;;;;;;;;;5061585;28;20044;-83
2023/10/31 10:11:06;;;;;;;1999.90;999.90;;;;;;;;;;5060712;28;20048;-84
2023/10/31 10:13:32;;;;;;;1999.90;999.90;;;;;;;;;;5060927;28;20547;-83
2023/10/31 10:16:00;;;;;;;1999.90;999.90;;;;;;;;;;5066751;28;20044;-83
2023/10/31 10:18:27;;;;;;;1999.90;999.90;;;;;;;;;;5062088;28;20040;-83
2023/10/31 10:20:57;;;;;;;1999.90;999.90;;;;;;;;;;5057258;28;20056;-84
2023/10/31 10:23:26;;;;;;;1999.90;999.90;;;;;;;;;;5062526;28;20409;-84
2023/10/31 10:25:53;;;;;;;1999.90;999.90;;;;;;;;;;5060428;28;20057;-83
2023/10/31 10:28:20;;;;;;;1999.90;999.90;;;;;;;;;;5061448;28;20048;-84
2023/10/31 10:30:47;;;;;;;1999.90;999.90;;;;;;;;;;5059829;28;20040;-84
2023/10/31 10:33:14;;;;;;;1999.90;999.90;;;;;;;;;;5062345;28;20053;-83
2023/10/31 10:35:40;;;;;;;1999.90;999.90;;;;;;;;;;5064624;28;20457;-84
2023/10/31 10:38:12;;;;;;;1999.90;999.90;;;;;;;;;;5059978;28;20410;-83
2023/10/31 10:40:42;;;;;;;1999.90;999.90;;;;;;;;;;5059513;28;20056;-84
2023/10/31 10:43:13;;;;;;;1999.90;999.90;;;;;;;;;;5064102;28;20486;-83
2023/10/31 10:45:43;;;;;;;1999.90;999.90;;;;;;;;;;5063888;28;20060;-83
2023/10/31 10:48:12;;;;;;;1999.90;999.90;;;;;;;;;;5065360;28;20110;-83
2023/10/31 10:50:43;;;;;;;1999.90;999.90;;;;;;;;;;5059579;28;20468;-84
2023/10/31 10:53:16;;;;;;;1999.90;999.90;;;;;;;;;;5058755;28;20123;-83
2023/10/31 10:55:46;;;;;;;1999.90;999.90;;;;;;;;;;5057496;28;20041;-83
2023/10/31 10:58:17;;;;;;;1999.90;999.90;;;;;;;;;;5057751;28;20056;-85
2023/10/31 11:00:44;;;;;;;1999.90;999.90;;;;;;;;;;5061781;28;20512;-83
2023/10/31 11:03:11;;;;;;;1999.90;999.90;;;;;;;;;;5058697;28;20053;-83
2023/10/31 11:05:38;;;;;;;1999.90;999.90;;;;;;;;;;5061532;28;20057;-83
2023/10/31 11:08:05;;;;;;;1999.90;999.90;;;;;;;;;;5062081;28;20093;-84
2023/10/31 11:10:32;;;;;;;1999.90;999.90;;;;;;;;;;5062411;28;20565;-84
2023/10/31 11:13:00;;;;;;;1999.90;999.90;;;;;;;;;;5063763;28;20048;-84
2023/10/31 11:15:27;;;;;;;1999.90;999.90;;;;;;;;;;5060490;28;20037;-84
2023/10/31 11:17:54;;;;;;;1999.90;999.90;;;;;;;;;;5062989;28;20051;-84
2023/10/31 11:20:21;;;;;;;1999.90;999.90;;;;;;;;;;5060319;28;20048;-84
2023/10/31 11:22:48;;;;;;;1999.90;999.90;;;;;;;;;;5061048;28;20061;-84
2023/10/31 11:25:17;;;;;;;1999.90;999.90;;;;;;;;;;5059417;28;20040;-83
2023/10/31 11:27:44;;;;;;;1999.90;999.90;;;;;;;;;;5058895;28;20075;-82
2023/10/31 11:30:22;;;;;;;1999.90;999.90;;;;;;;;;;5058451;28;20061;-83
2023/10/31 11:32:50;;;;;;;1999.90;999.90;;;;;;;;;;5056446;28;20505;-82
2023/10/31 11:35:18;;;;;;;1999.90;999.90;;;;;;;;;;5057518;28;20045;-83
2023/10/31 11:37:49;;;;;;;1999.90;999.90;;;;;;;;;;5055539;28;20362;-84
2023/10/31 11:40:21;;;;;;;1999.90;999.90;;;;;;;;;;5055947;28;20106;-82
2023/10/31 11:42:50;;;;;;;1999.90;999.90;;;;;;;;;;5060930;28;20586;-83
2023/10/31 11:45:31;;;;;;;1999.90;999.90;;;;;;;;;;5058548;28;20048;-84
2023/10/31 11:47:58;;;;;;;1999.90;999.90;;;;;;;;;;5057940;28;20052;-83
2023/10/31 11:50:25;;;;;;;1999.90;999.90;;;;;;;;;;5060541;28;20111;-83
2023/10/31 11:53:02;;;;;;;1999.90;999.90;;;;;;;;;;5058600;28;20123;-83
2023/10/31 11:55:29;;;;;;;1999.90;999.90;;;;;;;;;;5062404;28;20111;-83
2023/10/31 11:57:56;;;;;;;1999.90;999.90;;;;;;;;;;5058959;28;20059;-84
2023/10/31 12:00:23;;;;;;;1999.90;999.90;;;;;;;;;;5057211;28;20067;-84
2023/10/31 12:03:01;;;;;;;1999.90;999.90;;;;;;;;;;5059350;28;20048;-82
2023/10/31 12:05:28;;;;;;;1999.90;999.90;;;;;;;;;;5060022;28;20057;-83
2023/10/31 12:07:54;;;;;;;1999.90;999.90;;;;;;;;;;5057524;28;20043;-83
2023/10/31 12:10:26;;;;;;;1999.90;999.90;;;;;;;;;;5056805;28;20051;-83
2023/10/31 12:12:53;;;;;;;1999.90;999.90;;;;;;;;;;5059306;28;20143;-83
2023/10/31 12:15:20;;;;;;;1999.90;999.90;;;;;;;;;;5062676;28;20045;-82
2023/10/31 12:17:46;;;;;;;1999.90;999.90;;;;;;;;;;5061832;28;20095;-82
2023/10/31 12:20:15;;;;;;;1999.90;999.90;;;;;;;;;;5065519;28;20448;-83
2023/10/31 12:22:42;;;;;;;1999.90;999.90;;;;;;;;;;5062016;28;20143;-83
2023/10/31 12:25:10;;;;;;;1999.90;999.90;;;;;;;;;;5063504;28;20056;-83
2023/10/31 12:27:46;;;;;;;1999.90;999.90;;;;;;;;;;5066492;28;20045;-83
2023/10/31 12:30:14;;;;;;;1999.90;999.90;;;;;;;;;;5061944;28;20055;-83
2023/10/31 12:32:41;;;;;;;1999.90;999.90;;;;;;;;;;5062871;28;20060;-84
2023/10/31 12:35:10;;;;;;;1999.90;999.90;;;;;;;;;;5061014;28;20053;-85
2023/10/31 12:37:38;;;;;;;1999.90;999.90;;;;;;;;;;5061190;28;20057;-84
2023/10/31 12:40:09;;;;;;;1999.90;999.90;;;;;;;;;;5063667;28;20048;-83
2023/10/31 12:42:35;;;;;;;1999.90;999.90;;;;;;;;;;5062574;28;20497;-84
2023/10/31 12:45:02;;;;;;;1999.90;999.90;;;;;;;;;;5056640;28;20052;-83
2023/10/31 12:47:29;;;;;;;1999.90;999.90;;;;;;;;;;5060566;28;20075;-82
2023/10/31 12:50:09;;;;;;;1999.90;999.90;;;;;;;;;;5059064;28;20545;-82
2023/10/31 12:52:50;;;;;;;1999.90;999.90;;;;;;;;;;5061692;28;20044;-84
2023/10/31 12:55:18;;;;;;;1999.90;999.90;;;;;;;;;;5064106;28;20052;-83
2023/10/31 12:57:46;;;;;;;1999.90;999.90;;;;;;;;;;5060761;28;20048;-83
2023/10/31 13:00:13;;;;;;;1999.90;999.90;;;;;;;;;;5059918;28;20283;-85
2023/10/31 13:02:40;;;;;;;1999.90;999.90;;;;;;;;;;5057921;28;20055;-84
2023/10/31 13:05:14;;;;;;;1999.90;999.90;;;;;;;;;;5059073;28;20053;-85
2023/10/31 13:07:40;;;;;;;1999.90;999.90;;;;;;;;;;5064123;28;20052;-83
2023/10/31 13:10:10;;;;;;;1999.90;999.90;;;;;;;;;;5060099;28;20041;-85
2023/10/31 13:12:37;;;;;;;1999.90;999.90;;;;;;;;;;5061699;28;20048;-83
2023/10/31 13:15:05;;;;;;;1999.90;999.90;;;;;;;;;;5060959;28;20048;-85
2023/10/31 13:17:32;;;;;;;1999.90;999.90;;;;;;;;;;5059715;28;20082;-87
2023/10/31 13:19:58;;;;;;;1999.90;999.90;;;;;;;;;;5062419;28;20053;-88
2023/10/31 13:22:25;;;;;;;1999.90;999.90;;;;;;;;;;5063132;28;20045;-90
2023/10/31 13:24:52;;;;;;;1999.90;999.90;;;;;;;;;;5061231;28;20055;-90
2023/10/31 13:27:20;;;;;;;1999.90;999.90;;;;;;;;;;5064961;28;20045;-90
2023/10/31 13:29:49;;;;;;;1999.90;999.90;;;;;;;;;;5060919;28;20044;-88
2023/10/31 13:32:16;;;;;;;1999.90;999.90;;;;;;;;;;5060107;28;20131;-91
2023/10/31 13:34:42;;;;;;;1999.90;999.90;;;;;;;;;;5063660;28;20060;-89
2023/10/31 13:37:09;;;;;;;1999.90;999.90;;;;;;;;;;5059173;28;20068;-91
2023/10/31 13:39:35;;;;;;;1999.90;999.90;;;;;;;;;;5061708;28;20048;-91
2023/10/31 13:42:05;;;;;;;1999.90;999.90;;;;;;;;;;5065001;28;20061;-88